createdAt,value
2022-11-28T00:00:53.320Z,4.07
2022-11-28T00:01:56.468Z,4.33
2022-11-28T00:02:58.702Z,3.90
2022-11-28T00:04:02.164Z,3.43
2022-11-28T00:05:04.916Z,3.45
2022-11-28T00:06:08.928Z,3.70
2022-11-28T00:07:11.440Z,3.83
2022-11-28T00:08:14.861Z,3.50
2022-11-28T00:09:19.087Z,3.70
2022-11-28T00:10:21.200Z,3.10
2022-11-28T00:11:26.039Z,3.40
2022-11-28T00:12:29.299Z,3.50
2022-11-28T00:13:31.704Z,3.40
2022-11-28T00:14:35.040Z,3.53
2022-11-28T00:15:37.140Z,3.30
2022-11-28T00:16:40.348Z,3.33
2022-11-28T00:17:42.785Z,3.70
2022-11-28T00:18:45.865Z,3.80
2022-11-28T00:19:48.961Z,3.60
2022-11-28T00:20:51.482Z,4.37
2022-11-28T00:21:54.509Z,4.57
2022-11-28T00:22:56.544Z,4.20
2022-11-28T00:24:02.037Z,4.70
2022-11-28T00:25:04.566Z,4.87
2022-11-28T00:26:09.389Z,4.50
2022-11-28T00:27:13.873Z,3.97
2022-11-28T00:28:15.957Z,3.90
2022-11-28T00:29:19.033Z,4.03
2022-11-28T00:30:21.155Z,3.50
2022-11-28T00:31:26.215Z,3.90
2022-11-28T00:32:28.361Z,4.60
2022-11-28T00:33:32.055Z,4.63
2022-11-28T00:34:34.287Z,4.00
2022-11-28T00:35:37.392Z,4.10
2022-11-28T00:36:39.451Z,5.03
2022-11-28T00:37:42.455Z,4.93
2022-11-28T00:38:44.941Z,4.03
2022-11-28T00:39:48.117Z,3.77
2022-11-28T00:40:58.829Z,3.67
2022-11-28T00:42:01.854Z,3.73
2022-11-28T00:43:05.276Z,3.77
2022-11-28T00:44:08.472Z,4.07
2022-11-28T00:45:10.787Z,3.77
2022-11-28T00:46:15.135Z,4.10
2022-11-28T00:47:17.358Z,3.73
2022-11-28T00:48:20.713Z,3.17
2022-11-28T00:49:22.761Z,3.60
2022-11-28T00:50:25.897Z,3.57
2022-11-28T00:51:30.180Z,3.57
2022-11-28T00:52:33.648Z,3.50
2022-11-28T00:53:36.010Z,3.10
2022-11-28T00:54:39.420Z,3.67
2022-11-28T00:55:41.791Z,3.37
2022-11-28T00:56:44.805Z,3.50
2022-11-28T00:57:46.835Z,3.47
2022-11-28T00:58:51.497Z,3.43
2022-11-28T00:59:54.601Z,3.23
2022-11-28T01:00:56.872Z,3.47
2022-11-28T01:02:00.216Z,3.80
2022-11-28T01:03:02.562Z,3.50
2022-11-28T01:04:08.599Z,3.60
2022-11-28T01:05:10.713Z,3.40
2022-11-28T01:06:14.824Z,3.43
2022-11-28T01:07:17.142Z,3.33
2022-11-28T01:08:20.205Z,3.27
2022-11-28T01:09:23.941Z,3.47
2022-11-28T01:10:27.260Z,3.40
2022-11-28T01:11:30.391Z,3.23
2022-11-28T01:12:33.482Z,3.47
2022-11-28T01:13:35.488Z,3.37
2022-11-28T01:14:39.959Z,3.30
2022-11-28T01:15:42.727Z,2.87
2022-11-28T01:16:45.892Z,3.43
2022-11-28T01:17:48.164Z,3.90
2022-11-28T01:18:51.222Z,3.57
2022-11-28T01:19:53.285Z,3.60
2022-11-28T01:20:56.344Z,3.80
2022-11-28T01:21:58.398Z,3.70
2022-11-28T01:23:01.577Z,3.73
2022-11-28T01:24:04.320Z,4.00
2022-11-28T01:25:08.182Z,4.27
2022-11-28T01:26:16.142Z,4.20
2022-11-28T01:27:19.178Z,4.40
2022-11-28T01:28:21.312Z,3.80
2022-11-28T01:29:24.324Z,3.83
2022-11-28T01:30:28.053Z,4.40
2022-11-28T01:31:31.300Z,4.60
2022-11-28T01:32:33.396Z,4.10
2022-11-28T01:33:36.572Z,4.07
2022-11-28T01:34:38.630Z,4.00
2022-11-28T01:35:41.632Z,4.00
2022-11-28T01:36:43.740Z,4.43
2022-11-28T01:37:46.781Z,4.10
2022-11-28T01:38:49.441Z,4.23
2022-11-28T01:39:52.480Z,4.87
2022-11-28T01:40:55.276Z,3.83
2022-11-28T01:41:58.380Z,4.30
2022-11-28T01:43:00.506Z,4.40
2022-11-28T01:44:08.055Z,4.40
2022-11-28T01:45:17.177Z,4.80
2022-11-28T01:46:21.919Z,5.00
2022-11-28T01:47:29.941Z,4.47
2022-11-28T01:48:39.008Z,4.33
2022-11-28T01:49:42.117Z,4.00
2022-11-28T01:50:47.803Z,4.70
2022-11-28T01:51:54.039Z,4.60
2022-11-28T01:53:01.017Z,4.30
2022-11-28T01:54:03.918Z,4.00
2022-11-28T01:55:08.340Z,4.03
2022-11-28T01:56:16.405Z,3.93
2022-11-28T01:57:22.139Z,4.07
2022-11-28T01:58:25.604Z,3.40
2022-11-28T01:59:34.851Z,4.60
2022-11-28T02:00:37.265Z,3.67
2022-11-28T02:01:42.007Z,3.90
2022-11-28T02:02:47.454Z,3.93
2022-11-28T02:03:51.970Z,4.50
2022-11-28T02:04:54.591Z,4.67
2022-11-28T02:05:58.049Z,4.40
2022-11-28T02:07:00.397Z,4.17
2022-11-28T02:08:04.268Z,4.77
2022-11-28T02:09:09.972Z,4.40
2022-11-28T02:10:18.525Z,4.53
2022-11-28T02:12:01.631Z,3.97
2022-11-28T02:13:22.854Z,4.13
2022-11-28T02:14:41.493Z,4.27
2022-11-28T02:15:59.306Z,4.50
2022-11-28T02:17:15.856Z,4.40
2022-11-28T02:18:30.970Z,4.50
2022-11-28T02:20:22.048Z,4.33
2022-11-28T02:21:44.770Z,4.47
2022-11-28T02:22:54.891Z,4.83
2022-11-28T02:24:33.260Z,4.13
2022-11-28T02:26:08.758Z,4.83
2022-11-28T02:27:45.031Z,4.27
2022-11-28T02:29:22.636Z,3.97
2022-11-28T02:30:31.313Z,3.90
2022-11-28T02:32:07.451Z,4.57
2022-11-28T02:33:25.998Z,4.40
2022-11-28T02:34:34.955Z,3.97
2022-11-28T02:35:47.698Z,4.37
2022-11-28T02:36:51.886Z,4.00
2022-11-28T02:38:05.390Z,4.13
2022-11-28T02:39:14.570Z,4.43
2022-11-28T02:40:24.363Z,4.00
2022-11-28T02:41:33.586Z,4.30
2022-11-28T02:42:46.213Z,4.10
2022-11-28T02:44:00.318Z,4.67
2022-11-28T02:45:09.714Z,4.00
2022-11-28T02:46:17.757Z,4.60
2022-11-28T02:47:24.972Z,4.00
2022-11-28T02:48:37.178Z,4.73
2022-11-28T02:49:47.059Z,4.37
2022-11-28T02:50:56.556Z,4.80
2022-11-28T02:52:03.360Z,4.33
2022-11-28T02:53:09.686Z,4.30
2022-11-28T02:54:15.930Z,4.13
2022-11-28T02:55:19.528Z,4.63
2022-11-28T02:56:23.937Z,4.47
2022-11-28T02:57:35.465Z,4.23
2022-11-28T02:58:38.740Z,4.50
2022-11-28T02:59:49.697Z,4.37
2022-11-28T03:00:53.149Z,4.80
2022-11-28T03:01:55.420Z,5.30
2022-11-28T03:03:23.559Z,4.30
2022-11-28T03:04:35.183Z,4.70
2022-11-28T03:05:45.064Z,4.33
2022-11-28T03:06:58.397Z,4.40
2022-11-28T03:08:08.622Z,5.33
2022-11-28T03:09:27.496Z,4.43
2022-11-28T03:10:35.826Z,4.93
2022-11-28T03:11:50.656Z,4.27
2022-11-28T03:13:03.530Z,4.20
2022-11-28T03:14:12.185Z,4.30
2022-11-28T03:15:17.488Z,4.27
2022-11-28T03:16:28.200Z,3.93
2022-11-28T03:17:39.890Z,4.23
2022-11-28T03:18:52.131Z,4.23
2022-11-28T03:20:11.730Z,4.20
2022-11-28T03:21:22.392Z,3.63
2022-11-28T03:22:31.465Z,3.80
2022-11-28T03:23:39.389Z,4.40
2022-11-28T03:24:47.824Z,3.93
2022-11-28T03:25:59.000Z,4.10
2022-11-28T03:27:08.832Z,4.27
2022-11-28T03:28:18.313Z,3.90
2022-11-28T03:29:25.410Z,4.67
2022-11-28T03:30:32.813Z,4.53
2022-11-28T03:31:38.801Z,3.93
2022-11-28T03:32:44.446Z,4.00
2022-11-28T03:33:51.700Z,4.23
2022-11-28T03:35:04.229Z,3.80
2022-11-28T03:36:11.530Z,3.90
2022-11-28T03:37:18.953Z,4.10
2022-11-28T03:38:27.355Z,3.87
2022-11-28T03:39:36.075Z,4.23
2022-11-28T03:40:42.793Z,3.43
2022-11-28T03:41:52.626Z,4.10
2022-11-28T03:43:00.534Z,3.17
2022-11-28T03:44:06.912Z,3.40
2022-11-28T03:45:13.912Z,3.77
2022-11-28T03:46:19.163Z,3.40
2022-11-28T03:47:24.521Z,3.60
2022-11-28T03:48:31.948Z,3.60
2022-11-28T03:49:37.942Z,3.13
2022-11-28T03:50:48.153Z,3.87
2022-11-28T03:51:55.263Z,3.50
2022-11-28T03:53:03.314Z,3.73
2022-11-28T03:54:10.738Z,3.23
2022-11-28T03:55:18.492Z,3.37
2022-11-28T03:56:25.890Z,3.53
2022-11-28T03:57:34.293Z,3.30
2022-11-28T03:58:41.581Z,3.13
2022-11-28T03:59:47.971Z,3.30
2022-11-28T04:00:57.521Z,2.67
2022-11-28T04:02:11.716Z,2.90
2022-11-28T04:03:23.424Z,3.20
2022-11-28T04:04:32.782Z,3.10
2022-11-28T04:05:43.176Z,3.27
2022-11-28T04:06:55.013Z,2.90
2022-11-28T04:08:01.320Z,3.00
2022-11-28T04:09:14.240Z,3.13
2022-11-28T04:10:21.036Z,3.17
2022-11-28T04:11:28.972Z,3.03
2022-11-28T04:12:40.553Z,3.20
2022-11-28T04:13:50.960Z,2.80
2022-11-28T04:15:00.138Z,2.90
2022-11-28T04:16:09.392Z,2.77
2022-11-28T04:17:17.284Z,2.83
2022-11-28T04:18:24.665Z,2.40
2022-11-28T04:19:30.927Z,2.60
2022-11-28T04:20:39.905Z,2.57
2022-11-28T04:21:51.841Z,2.83
2022-11-28T04:23:01.333Z,2.30
2022-11-28T04:24:09.651Z,2.73
2022-11-28T04:25:15.169Z,2.60
2022-11-28T04:26:21.164Z,2.43
2022-11-28T04:27:27.247Z,2.80
2022-11-28T04:28:34.218Z,2.63
2022-11-28T04:29:43.286Z,2.47
2022-11-28T04:30:48.804Z,2.80
2022-11-28T04:31:56.827Z,2.23
2022-11-28T04:33:02.698Z,2.47
2022-11-28T04:34:08.875Z,2.50
2022-11-28T04:35:14.191Z,2.47
2022-11-28T04:36:21.015Z,2.30
2022-11-28T04:37:25.204Z,2.63
2022-11-28T04:38:31.909Z,2.20
2022-11-28T04:39:36.400Z,2.27
2022-11-28T04:40:44.915Z,2.50
2022-11-28T04:41:52.926Z,2.50
2022-11-28T04:42:59.796Z,2.23
2022-11-28T04:44:09.027Z,2.23
2022-11-28T04:45:15.489Z,2.30
2022-11-28T04:46:22.168Z,2.20
2022-11-28T04:47:26.599Z,2.20
2022-11-28T04:48:34.128Z,2.33
2022-11-28T04:49:38.287Z,2.30
2022-11-28T04:50:47.382Z,2.50
2022-11-28T04:51:55.141Z,2.27
2022-11-28T04:53:04.669Z,2.53
2022-11-28T04:54:15.751Z,2.53
2022-11-28T04:55:24.021Z,2.30
2022-11-28T04:56:30.199Z,2.03
2022-11-28T04:57:36.775Z,2.60
2022-11-28T04:58:44.921Z,2.40
2022-11-28T04:59:48.314Z,2.30
2022-11-28T05:00:53.912Z,1.93
2022-11-28T05:01:58.306Z,2.47
2022-11-28T05:03:01.747Z,2.40
2022-11-28T05:04:04.171Z,2.20
2022-11-28T05:05:10.427Z,2.63
2022-11-28T05:06:24.228Z,2.37
2022-11-28T05:07:29.195Z,2.30
2022-11-28T05:08:31.351Z,2.43
2022-11-28T05:09:36.226Z,2.40
2022-11-28T05:10:38.333Z,2.10
2022-11-28T05:11:41.597Z,2.00
2022-11-28T05:12:43.663Z,1.90
2022-11-28T05:13:46.679Z,2.37
2022-11-28T05:14:48.728Z,2.17
2022-11-28T05:15:51.934Z,2.07
2022-11-28T05:16:54.035Z,1.93
2022-11-28T05:17:57.075Z,2.10
2022-11-28T05:18:59.108Z,2.20
2022-11-28T05:20:02.227Z,2.10
2022-11-28T05:21:08.098Z,2.10
2022-11-28T05:22:11.130Z,1.83
2022-11-28T05:23:13.181Z,2.20
2022-11-28T05:24:16.343Z,2.10
2022-11-28T05:25:19.959Z,2.10
2022-11-28T05:26:23.800Z,1.80
2022-11-28T05:27:25.803Z,1.97
2022-11-28T05:28:28.823Z,2.07
2022-11-28T05:29:31.843Z,2.30
2022-11-28T05:30:33.939Z,2.40
2022-11-28T05:31:38.134Z,2.30
2022-11-28T05:32:40.442Z,1.90
2022-11-28T05:33:43.500Z,2.10
2022-11-28T05:34:45.515Z,2.10
2022-11-28T05:35:48.513Z,2.20
2022-11-28T05:36:50.664Z,2.00
2022-11-28T05:37:53.708Z,2.00
2022-11-28T05:38:56.477Z,2.30
2022-11-28T05:39:59.585Z,2.10
2022-11-28T05:41:04.760Z,2.10
2022-11-28T05:42:07.832Z,2.00
2022-11-28T05:43:10.054Z,1.90
2022-11-28T05:44:13.107Z,1.90
2022-11-28T05:45:15.313Z,2.57
2022-11-28T05:46:19.285Z,2.00
2022-11-28T05:47:21.543Z,1.70
2022-11-28T05:48:25.075Z,1.70
2022-11-28T05:49:28.788Z,1.83
2022-11-28T05:50:35.689Z,1.70
2022-11-28T05:51:40.630Z,1.97
2022-11-28T05:52:43.613Z,1.90
2022-11-28T05:53:45.808Z,1.90
2022-11-28T05:54:48.907Z,1.90
2022-11-28T05:55:51.001Z,2.23
2022-11-28T05:56:55.356Z,2.30
2022-11-28T05:57:57.449Z,2.13
2022-11-28T05:59:00.544Z,2.10
2022-11-28T06:00:03.343Z,2.00
2022-11-28T06:01:16.445Z,2.50
2022-11-28T06:02:18.577Z,2.20
2022-11-28T06:03:21.779Z,2.00
2022-11-28T06:04:23.894Z,2.13
2022-11-28T06:05:42.358Z,1.93
2022-11-28T06:06:46.444Z,2.40
2022-11-28T06:07:48.587Z,1.97
2022-11-28T06:08:52.752Z,2.47
2022-11-28T06:09:55.799Z,2.17
2022-11-28T06:10:58.213Z,2.10
2022-11-28T06:12:03.067Z,1.77
2022-11-28T06:13:05.412Z,2.10
2022-11-28T06:14:08.461Z,2.10
2022-11-28T06:15:11.249Z,2.10
2022-11-28T06:16:17.933Z,2.47
2022-11-28T06:17:20.063Z,2.20
2022-11-28T06:18:23.105Z,2.33
2022-11-28T06:19:26.133Z,1.93
2022-11-28T06:20:28.400Z,1.80
2022-11-28T06:21:32.929Z,1.80
2022-11-28T06:22:35.176Z,1.63
2022-11-28T06:23:40.165Z,1.60
2022-11-28T06:24:42.226Z,1.80
2022-11-28T06:25:45.466Z,2.13
2022-11-28T06:26:47.540Z,2.10
2022-11-28T06:27:51.892Z,2.20
2022-11-28T06:28:55.500Z,2.33
2022-11-28T06:29:57.562Z,2.17
2022-11-28T06:31:00.843Z,2.10
2022-11-28T06:32:03.932Z,1.90
2022-11-28T06:33:06.068Z,1.73
2022-11-28T06:34:09.084Z,2.10
2022-11-28T06:35:11.152Z,2.13
2022-11-28T06:36:15.666Z,2.10
2022-11-28T06:37:17.821Z,1.87
2022-11-28T06:38:20.814Z,2.10
2022-11-28T06:39:23.854Z,2.00
2022-11-28T06:40:26.872Z,2.10
2022-11-28T06:41:28.975Z,2.10
2022-11-28T06:42:32.026Z,2.37
2022-11-28T06:43:35.672Z,2.00
2022-11-28T06:44:38.668Z,2.40
2022-11-28T06:45:41.829Z,1.90
2022-11-28T06:46:45.167Z,2.10
2022-11-28T06:47:48.073Z,2.00
2022-11-28T06:48:52.830Z,2.00
2022-11-28T06:49:55.879Z,2.00
2022-11-28T06:51:03.363Z,1.87
2022-11-28T06:52:06.502Z,2.13
2022-11-28T06:53:08.675Z,1.83
2022-11-28T06:54:11.762Z,1.93
2022-11-28T06:55:13.862Z,2.13
2022-11-28T06:56:19.273Z,2.10
2022-11-28T06:57:22.326Z,1.97
2022-11-28T06:58:24.435Z,2.00
2022-11-28T06:59:28.801Z,1.97
2022-11-28T07:00:31.037Z,1.93
2022-11-28T07:01:35.010Z,2.00
2022-11-28T07:02:37.217Z,2.40
2022-11-28T07:03:41.023Z,2.20
2022-11-28T07:04:43.070Z,2.03
2022-11-28T07:05:46.076Z,2.20
2022-11-28T07:06:48.100Z,2.07
2022-11-28T07:07:54.529Z,2.10
2022-11-28T07:08:58.928Z,1.83
2022-11-28T07:10:01.022Z,2.47
2022-11-28T07:11:12.360Z,2.20
2022-11-28T07:12:15.734Z,2.20
2022-11-28T07:13:17.855Z,1.90
2022-11-28T07:14:20.894Z,2.10
2022-11-28T07:15:25.577Z,2.07
2022-11-28T07:16:30.633Z,2.20
2022-11-28T07:17:33.713Z,2.17
2022-11-28T07:18:36.709Z,3.80
2022-11-28T07:19:39.954Z,2.00
2022-11-28T07:20:42.208Z,2.20
2022-11-28T07:21:45.229Z,2.00
2022-11-28T07:22:48.588Z,1.70
2022-11-28T07:23:51.767Z,2.17
2022-11-28T07:24:53.804Z,2.17
2022-11-28T07:25:59.767Z,3.77
2022-11-28T07:27:03.138Z,1.80
2022-11-28T07:28:05.437Z,1.83
2022-11-28T07:29:10.015Z,1.90
2022-11-28T07:30:12.573Z,1.90
2022-11-28T07:31:19.047Z,2.00
2022-11-28T07:32:21.245Z,2.63
2022-11-28T07:33:24.305Z,2.00
2022-11-28T07:34:27.418Z,1.60
2022-11-28T07:35:29.505Z,1.80
2022-11-28T07:36:32.772Z,1.87
2022-11-28T07:37:34.975Z,1.70
2022-11-28T07:38:38.053Z,1.90
2022-11-28T07:39:40.390Z,1.97
2022-11-28T07:40:43.617Z,2.10
2022-11-28T07:41:46.639Z,1.67
2022-11-28T07:42:48.903Z,2.13
2022-11-28T07:43:55.599Z,1.70
2022-11-28T07:44:58.702Z,1.63
2022-11-28T07:46:04.262Z,1.93
2022-11-28T07:47:08.788Z,2.10
2022-11-28T07:48:10.980Z,1.80
2022-11-28T07:49:14.915Z,1.93
2022-11-28T07:50:18.081Z,2.00
2022-11-28T07:51:22.495Z,2.03
2022-11-28T07:52:25.509Z,2.00
2022-11-28T07:53:28.552Z,1.70
2022-11-28T07:54:31.589Z,1.67
2022-11-28T07:55:36.337Z,1.80
2022-11-28T07:57:10.931Z,1.60
2022-11-28T07:58:02.243Z,1.70
2022-11-28T07:59:05.690Z,1.77
2022-11-28T08:00:09.885Z,1.60
2022-11-28T08:01:16.853Z,1.80
2022-11-28T08:02:21.357Z,1.80
2022-11-28T08:03:23.491Z,1.50
2022-11-28T08:04:26.514Z,1.87
2022-11-28T08:05:28.566Z,1.60
2022-11-28T08:06:32.987Z,1.43
2022-11-28T08:07:36.089Z,1.60
2022-11-28T08:08:38.295Z,1.70
2022-11-28T08:09:41.528Z,1.70
2022-11-28T08:10:43.982Z,1.57
2022-11-28T08:11:47.004Z,1.60
2022-11-28T08:12:49.112Z,1.80
2022-11-28T08:13:55.090Z,1.57
2022-11-28T08:15:01.041Z,1.50
2022-11-28T08:16:04.788Z,1.90
2022-11-28T08:17:07.865Z,1.80
2022-11-28T08:18:12.954Z,1.73
2022-11-28T08:19:15.971Z,1.70
2022-11-28T08:20:18.205Z,1.60
2022-11-28T08:21:24.159Z,1.40
2022-11-28T08:22:27.270Z,2.00
2022-11-28T08:23:29.348Z,1.60
2022-11-28T08:24:32.399Z,1.27
2022-11-28T08:25:34.484Z,1.63
2022-11-28T08:26:37.682Z,1.87
2022-11-28T08:27:39.720Z,1.60
2022-11-28T08:28:43.641Z,1.40
2022-11-28T08:29:50.518Z,1.50
2022-11-28T08:30:55.887Z,1.60
2022-11-28T08:31:58.983Z,1.70
2022-11-28T08:33:02.010Z,1.60
2022-11-28T08:34:07.078Z,1.80
2022-11-28T08:35:10.339Z,1.60
2022-11-28T08:36:14.402Z,1.50
2022-11-28T08:37:17.589Z,1.53
2022-11-28T08:38:19.832Z,1.60
2022-11-28T08:39:24.515Z,1.80
2022-11-28T08:40:26.779Z,2.00
2022-11-28T08:41:29.846Z,1.80
2022-11-28T08:42:32.919Z,1.53
2022-11-28T08:43:36.814Z,1.60
2022-11-28T08:44:39.834Z,1.90
2022-11-28T08:45:42.047Z,1.77
2022-11-28T08:46:45.149Z,2.17
2022-11-28T08:47:48.245Z,1.60
2022-11-28T08:48:51.477Z,1.90
2022-11-28T08:49:55.861Z,1.60
2022-11-28T08:50:57.930Z,1.90
2022-11-28T08:52:00.927Z,1.67
2022-11-28T08:53:07.656Z,1.87
2022-11-28T08:54:11.050Z,1.77
2022-11-28T08:55:14.122Z,1.40
2022-11-28T08:56:16.183Z,1.60
2022-11-28T08:57:19.187Z,1.70
2022-11-28T08:58:21.296Z,1.60
2022-11-28T08:59:24.425Z,1.83
2022-11-28T09:00:26.420Z,1.80
2022-11-28T09:01:29.743Z,1.53
2022-11-28T09:02:32.847Z,1.40
2022-11-28T09:03:34.933Z,1.80
2022-11-28T09:04:38.003Z,2.50
2022-11-28T09:05:42.501Z,1.73
2022-11-28T09:06:45.638Z,1.47
2022-11-28T09:07:48.681Z,1.70
2022-11-28T09:08:51.547Z,1.43
2022-11-28T09:09:54.602Z,1.83
2022-11-28T09:10:58.558Z,2.37
2022-11-28T09:12:01.615Z,1.70
2022-11-28T09:13:03.939Z,1.50
2022-11-28T09:14:07.474Z,1.50
2022-11-28T09:15:11.058Z,1.60
2022-11-28T09:16:13.445Z,1.97
2022-11-28T09:17:16.793Z,1.30
2022-11-28T09:18:20.083Z,2.00
2022-11-28T09:19:23.126Z,1.60
2022-11-28T09:20:26.193Z,1.47
2022-11-28T09:21:30.766Z,1.70
2022-11-28T09:22:33.872Z,1.53
2022-11-28T09:23:36.912Z,1.53
2022-11-28T09:24:40.276Z,1.60
2022-11-28T09:25:43.352Z,1.90
2022-11-28T09:26:46.516Z,1.70
2022-11-28T09:27:48.618Z,1.60
2022-11-28T09:28:52.175Z,1.80
2022-11-28T09:29:54.244Z,1.90
2022-11-28T09:31:02.408Z,1.70
2022-11-28T09:32:06.041Z,1.87
2022-11-28T09:33:09.309Z,1.70
2022-11-28T09:34:12.395Z,1.80
2022-11-28T09:35:14.501Z,1.60
2022-11-28T09:36:19.747Z,1.77
2022-11-28T09:37:24.468Z,1.60
2022-11-28T09:38:27.510Z,1.60
2022-11-28T09:39:39.546Z,1.73
2022-11-28T09:40:53.403Z,1.80
2022-11-28T09:42:06.494Z,1.70
2022-11-28T09:43:16.911Z,1.50
2022-11-28T09:44:23.956Z,1.80
2022-11-28T09:45:27.097Z,1.67
2022-11-28T09:46:33.756Z,1.53
2022-11-28T09:47:39.138Z,1.90
2022-11-28T09:48:46.695Z,1.57
2022-11-28T09:49:53.359Z,1.60
2022-11-28T09:51:01.398Z,2.00
2022-11-28T09:52:11.398Z,1.70
2022-11-28T09:53:24.963Z,1.70
2022-11-28T09:54:38.315Z,1.80
2022-11-28T09:55:45.121Z,1.90
2022-11-28T09:56:50.382Z,1.63
2022-11-28T09:57:54.423Z,1.70
2022-11-28T09:58:58.945Z,1.63
2022-11-28T10:00:02.812Z,1.83
2022-11-28T10:01:21.383Z,1.63
2022-11-28T10:02:29.519Z,1.80
2022-11-28T10:03:46.128Z,1.60
2022-11-28T10:04:58.047Z,1.90
2022-11-28T10:06:12.516Z,1.90
2022-11-28T10:07:24.075Z,2.20
2022-11-28T10:08:39.124Z,1.57
2022-11-28T10:09:56.596Z,2.20
2022-11-28T10:11:05.302Z,2.03
2022-11-28T10:12:23.087Z,1.63
2022-11-28T10:13:46.938Z,1.60
2022-11-28T10:15:15.303Z,1.57
2022-11-28T10:16:23.462Z,1.83
2022-11-28T10:17:37.705Z,1.90
2022-11-28T10:18:43.860Z,2.23
2022-11-28T10:19:54.869Z,2.30
2022-11-28T10:21:03.661Z,2.50
2022-11-28T10:22:11.133Z,2.33
2022-11-28T10:23:23.489Z,2.00
2022-11-28T10:24:35.779Z,2.00
2022-11-28T10:25:43.561Z,2.03
2022-11-28T10:26:49.583Z,2.07
2022-11-28T10:27:51.696Z,2.20
2022-11-28T10:28:58.753Z,1.90
2022-11-28T10:30:05.186Z,2.40
2022-11-28T10:31:16.566Z,2.53
2022-11-28T10:32:25.821Z,2.07
2022-11-28T10:33:32.779Z,2.17
2022-11-28T10:34:43.590Z,2.27
2022-11-28T10:35:51.978Z,2.10
2022-11-28T10:36:57.491Z,2.47
2022-11-28T10:38:00.543Z,2.60
2022-11-28T10:39:11.488Z,1.90
2022-11-28T10:40:23.143Z,2.00
2022-11-28T10:41:32.874Z,2.30
2022-11-28T10:42:42.269Z,2.20
2022-11-28T10:43:52.497Z,2.43
2022-11-28T10:45:08.428Z,2.50
2022-11-28T10:46:32.084Z,2.50
2022-11-28T10:48:04.015Z,2.10
2022-11-28T10:49:24.996Z,2.20
2022-11-28T10:50:39.052Z,2.50
2022-11-28T10:51:50.161Z,3.27
2022-11-28T10:53:00.701Z,4.10
2022-11-28T10:54:17.592Z,4.13
2022-11-28T10:55:30.875Z,3.40
2022-11-28T10:56:45.175Z,2.80
2022-11-28T10:57:56.473Z,2.90
2022-11-28T10:59:06.674Z,2.93
2022-11-28T11:00:13.486Z,4.53
2022-11-28T11:01:16.999Z,4.43
2022-11-28T11:02:30.359Z,4.73
2022-11-28T11:03:36.025Z,2.90
2022-11-28T11:04:40.257Z,3.80
2022-11-28T11:05:43.337Z,2.83
2022-11-28T11:07:07.570Z,2.70
2022-11-28T11:08:20.176Z,2.83
2022-11-28T11:09:23.300Z,2.60
2022-11-28T11:10:31.741Z,2.40
2022-11-28T11:11:38.231Z,2.70
2022-11-28T11:12:41.832Z,5.00
2022-11-28T11:13:58.569Z,4.77
2022-11-28T11:15:16.971Z,3.57
2022-11-28T11:16:19.081Z,4.17
2022-11-28T11:17:31.363Z,3.27
2022-11-28T11:18:51.903Z,2.90
2022-11-28T11:19:54.060Z,2.70
2022-11-28T11:21:10.044Z,2.80
2022-11-28T11:22:19.689Z,2.50
2022-11-28T11:23:24.575Z,3.47
2022-11-28T11:24:26.683Z,2.73
2022-11-28T11:25:33.188Z,2.53
2022-11-28T11:26:40.112Z,2.13
2022-11-28T11:27:50.651Z,3.97
2022-11-28T11:28:53.910Z,3.73
2022-11-28T11:29:56.289Z,4.47
2022-11-28T11:31:01.169Z,2.73
2022-11-28T11:32:06.926Z,2.93
2022-11-28T11:33:17.522Z,2.50
2022-11-28T11:34:23.278Z,2.57
2022-11-28T11:35:28.623Z,2.10
2022-11-28T11:36:34.142Z,2.77
2022-11-28T11:37:38.163Z,3.37
2022-11-28T11:38:41.322Z,2.80
2022-11-28T11:39:49.612Z,3.37
2022-11-28T11:40:54.092Z,2.70
2022-11-28T11:42:12.275Z,2.57
2022-11-28T11:43:27.683Z,2.87
2022-11-28T11:44:34.823Z,2.67
2022-11-28T11:45:38.626Z,2.83
2022-11-28T11:46:52.174Z,2.17
2022-11-28T11:47:55.564Z,2.50
2022-11-28T11:48:58.812Z,2.47
2022-11-28T11:50:06.277Z,2.77
2022-11-28T11:51:23.517Z,2.63
2022-11-28T11:52:28.647Z,2.90
2022-11-28T11:53:31.717Z,2.30
2022-11-28T11:54:34.817Z,2.67
2022-11-28T11:55:46.002Z,2.37
2022-11-28T11:57:00.650Z,2.33
2022-11-28T11:58:06.758Z,2.47
2022-11-28T11:59:15.204Z,2.20
2022-11-28T12:00:21.733Z,2.40
2022-11-28T12:01:26.362Z,2.17
2022-11-28T12:02:38.716Z,1.90
2022-11-28T12:03:43.685Z,2.00
2022-11-28T12:04:55.342Z,1.90
2022-11-28T12:06:19.900Z,2.13
2022-11-28T12:07:30.404Z,2.00
2022-11-28T12:08:37.022Z,2.37
2022-11-28T12:09:45.176Z,2.20
2022-11-28T12:10:53.774Z,2.00
2022-11-28T12:12:02.645Z,2.20
2022-11-28T12:13:06.040Z,2.00
2022-11-28T12:14:29.331Z,1.73
2022-11-28T12:15:41.399Z,1.90
2022-11-28T12:16:49.540Z,1.70
2022-11-28T12:18:11.387Z,1.70
2022-11-28T12:19:29.603Z,2.00
2022-11-28T12:20:42.181Z,1.90
2022-11-28T12:22:02.613Z,2.10
2022-11-28T12:23:18.937Z,2.13
2022-11-28T12:24:30.107Z,2.20
2022-11-28T12:25:41.541Z,1.87
2022-11-28T12:26:49.371Z,1.87
2022-11-28T12:28:01.988Z,2.23
2022-11-28T12:30:39.122Z,2.10
2022-11-28T12:31:56.313Z,3.40
2022-11-28T12:33:11.584Z,3.30
2022-11-28T12:34:26.572Z,4.47
2022-11-28T12:35:39.348Z,4.87
2022-11-28T12:36:50.165Z,4.57
2022-11-28T12:38:11.155Z,4.73
2022-11-28T12:39:22.435Z,4.10
2022-11-28T12:40:36.613Z,3.50
2022-11-28T12:42:09.377Z,2.80
2022-11-28T12:43:26.554Z,2.80
2022-11-28T12:44:40.311Z,3.27
2022-11-28T12:45:49.276Z,3.93
2022-11-28T12:47:03.839Z,4.33
2022-11-28T12:48:21.550Z,4.77
2022-11-28T12:49:33.108Z,3.80
2022-11-28T12:50:39.498Z,5.67
2022-11-28T12:51:54.796Z,4.33
2022-11-28T12:53:11.278Z,5.57
2022-11-28T12:54:42.474Z,4.10
2022-11-28T12:55:52.649Z,3.23
2022-11-28T12:57:01.860Z,2.80
2022-11-28T12:58:15.184Z,3.87
2022-11-28T12:59:28.117Z,3.70
2022-11-28T13:00:31.505Z,3.37
2022-11-28T13:01:49.246Z,3.20
2022-11-28T13:03:05.036Z,2.80
2022-11-28T13:04:20.454Z,3.23
2022-11-28T13:05:32.329Z,2.83
2022-11-28T13:06:43.210Z,2.87
2022-11-28T13:07:58.907Z,2.73
2022-11-28T13:09:26.884Z,2.80
2022-11-28T13:10:40.270Z,2.90
2022-11-28T13:11:56.260Z,2.70
2022-11-28T13:13:05.204Z,2.93
2022-11-28T13:14:15.674Z,2.63
2022-11-28T13:15:29.269Z,3.30
2022-11-28T13:16:41.968Z,3.17
2022-11-28T13:17:52.505Z,2.70
2022-11-28T13:19:00.520Z,3.40
2022-11-28T13:20:13.658Z,3.30
2022-11-28T13:21:29.162Z,3.10
2022-11-28T13:22:50.786Z,3.50
2022-11-28T13:24:03.722Z,3.63
2022-11-28T13:25:20.229Z,3.00
2022-11-28T13:26:36.551Z,3.03
2022-11-28T13:27:47.792Z,3.30
2022-11-28T13:28:57.169Z,3.17
2022-11-28T13:30:10.306Z,2.97
2022-11-28T13:31:23.541Z,3.60
2022-11-28T13:32:36.905Z,3.70
2022-11-28T13:33:50.100Z,3.13
2022-11-28T13:34:53.074Z,3.23
2022-11-28T13:35:57.974Z,3.40
2022-11-28T13:39:11.302Z,3.80
2022-11-28T13:40:23.597Z,3.43
2022-11-28T13:42:09.544Z,3.07
2022-11-28T13:43:08.030Z,2.97
2022-11-28T13:44:17.756Z,3.20
2022-11-28T13:45:31.547Z,3.30
2022-11-28T13:46:36.757Z,3.23
2022-11-28T13:47:39.905Z,3.20
2022-11-28T13:49:14.581Z,4.13
2022-11-28T13:50:39.327Z,3.80
2022-11-28T13:51:41.411Z,3.67
2022-11-28T13:52:44.542Z,3.60
2022-11-28T13:53:49.525Z,3.50
2022-11-28T13:54:54.669Z,4.07
2022-11-28T13:56:28.115Z,3.90
2022-11-28T13:57:37.120Z,3.60
2022-11-28T13:58:46.829Z,3.67
2022-11-28T13:59:57.475Z,3.13
2022-11-28T14:01:08.729Z,4.00
2022-11-28T14:02:21.154Z,3.37
2022-11-28T14:03:24.368Z,3.50
2022-11-28T14:04:28.887Z,3.43
2022-11-28T14:05:34.789Z,3.60
2022-11-28T14:06:44.651Z,3.47
2022-11-28T14:07:48.005Z,3.20
2022-11-28T14:09:06.795Z,3.33
2022-11-28T14:10:42.519Z,3.20
2022-11-28T14:12:07.840Z,3.30
2022-11-28T14:13:33.390Z,3.10
2022-11-28T14:14:53.357Z,3.50
2022-11-28T14:16:14.153Z,3.13
2022-11-28T14:17:32.288Z,2.87
2022-11-28T14:18:56.715Z,3.20
2022-11-28T14:20:13.699Z,3.40
2022-11-28T14:21:27.705Z,3.20
2022-11-28T14:22:45.429Z,3.60
2022-11-28T14:23:54.895Z,3.60
2022-11-28T14:25:03.821Z,3.63
2022-11-28T14:26:15.579Z,3.90
2022-11-28T14:27:22.620Z,3.70
2022-11-28T14:28:28.292Z,3.27
2022-11-28T14:29:36.204Z,3.70
2022-11-28T14:30:42.604Z,3.63
2022-11-28T14:32:13.795Z,3.70
2022-11-28T14:33:20.058Z,4.17
2022-11-28T14:34:42.136Z,3.50
2022-11-28T14:36:33.946Z,3.70
2022-11-28T14:37:52.788Z,3.30
2022-11-28T14:39:12.045Z,3.27
2022-11-28T14:40:47.646Z,3.37
2022-11-28T14:43:00.241Z,3.00
2022-11-28T14:44:38.852Z,3.07
2022-11-28T14:45:45.520Z,3.13
2022-11-28T14:47:07.509Z,2.90
2022-11-28T14:48:28.951Z,3.10
2022-11-28T14:49:32.073Z,3.30
2022-11-28T14:50:48.236Z,2.53
2022-11-28T14:52:39.481Z,3.10
2022-11-28T14:53:47.417Z,3.10
2022-11-28T14:54:51.948Z,3.00
2022-11-28T14:55:55.993Z,3.47
2022-11-28T14:57:00.221Z,5.77
2022-11-28T14:58:05.542Z,8.50
2022-11-28T14:59:12.099Z,8.43
2022-11-28T15:00:18.537Z,8.63
2022-11-28T15:01:30.642Z,3.30
2022-11-28T15:02:56.231Z,7.00
2022-11-28T15:04:23.628Z,7.63
2022-11-28T15:05:40.694Z,9.50
2022-11-28T15:06:43.461Z,10.30